Time;durP1;ratioP1;P1;durP2;ratioP2;P2;SDS_P1;SDS_P2;PMS_P1;PMS_P2;Temp;Humidity;BMP_temperature;BMP_pressure;BME280_temperature;BME280_humidity;BME280_pressure;Samples;Min_cycle;Max_cycle;Signal;HPM_P1;HPM_P2
2024/01/11 00:00:30;;;;;;;56.33;31.08;;;;;;;;;;5035728;28;20064;-77
2024/01/11 00:02:56;;;;;;;53.88;28.92;;;;;;;;;;5035134;28;20048;-76
2024/01/11 00:05:22;;;;;;;54.90;30.35;;;;;;;;;;5028995;28;20045;-77
2024/01/11 00:07:49;;;;;;;53.22;30.38;;;;;;;;;;5032976;28;20045;-77
2024/01/11 00:10:16;;;;;;;57.28;31.33;;;;;;;;;;5033168;28;20474;-77
2024/01/11 00:12:42;;;;;;;56.80;31.10;;;;;;;;;;5039183;28;20045;-77
2024/01/11 00:15:08;;;;;;;54.17;29.08;;;;;;;;;;5034010;28;20081;-77
2024/01/11 00:17:34;;;;;;;55.75;29.88;;;;;;;;;;5053409;28;20482;-78
2024/01/11 00:20:01;;;;;;;55.50;29.63;;;;;;;;;;5053585;28;20494;-76
2024/01/11 00:22:27;;;;;;;53.90;30.02;;;;;;;;;;5020402;28;20411;-77
2024/01/11 00:24:53;;;;;;;52.97;29.60;;;;;;;;;;5034127;28;20049;-76
2024/01/11 00:27:19;;;;;;;53.65;31.02;;;;;;;;;;5048616;28;20056;-76
2024/01/11 00:29:45;;;;;;;53.33;29.00;;;;;;;;;;5027752;28;20041;-77
2024/01/11 00:32:11;;;;;;;51.10;28.65;;;;;;;;;;5049917;28;20406;-77
2024/01/11 00:34:38;;;;;;;51.05;27.48;;;;;;;;;;5050903;28;20049;-76
2024/01/11 00:37:04;;;;;;;51.63;27.45;;;;;;;;;;5015636;28;20522;-76
2024/01/11 00:39:30;;;;;;;55.13;29.02;;;;;;;;;;5032573;28;20415;-77
2024/01/11 00:41:56;;;;;;;59.13;29.83;;;;;;;;;;5034477;28;20487;-76
2024/01/11 00:44:22;;;;;;;55.55;30.67;;;;;;;;;;5009465;28;20509;-76
2024/01/11 00:46:48;;;;;;;58.08;28.98;;;;;;;;;;5045402;28;20051;-77
2024/01/11 00:49:15;;;;;;;56.13;30.05;;;;;;;;;;5029758;28;20048;-76
2024/01/11 00:51:41;;;;;;;54.67;29.33;;;;;;;;;;5044439;28;20040;-76
2024/01/11 00:54:07;;;;;;;54.17;29.75;;;;;;;;;;5049258;28;20044;-77
2024/01/11 00:56:33;;;;;;;54.42;28.23;;;;;;;;;;5016322;28;20068;-77
2024/01/11 00:58:59;;;;;;;53.92;29.90;;;;;;;;;;5040851;28;20049;-77
2024/01/11 01:01:25;;;;;;;54.05;28.38;;;;;;;;;;5030589;28;20167;-77
2024/01/11 01:03:51;;;;;;;58.22;30.67;;;;;;;;;;5046165;28;20406;-77
2024/01/11 01:06:17;;;;;;;52.15;28.23;;;;;;;;;;5045469;28;20037;-77
2024/01/11 01:08:44;;;;;;;57.38;29.60;;;;;;;;;;5004724;28;20041;-77
2024/01/11 01:11:10;;;;;;;56.45;29.40;;;;;;;;;;5016619;28;20107;-76
2024/01/11 01:13:36;;;;;;;54.22;28.15;;;;;;;;;;5033306;28;20479;-77
2024/01/11 01:16:02;;;;;;;55.10;28.55;;;;;;;;;;5032090;28;20046;-76
2024/01/11 01:18:28;;;;;;;60.38;31.13;;;;;;;;;;5032895;28;20411;-77
2024/01/11 01:20:54;;;;;;;53.58;28.50;;;;;;;;;;5046141;28;20086;-76
2024/01/11 01:23:20;;;;;;;59.03;30.50;;;;;;;;;;5053065;28;20045;-77
2024/01/11 01:25:46;;;;;;;62.92;30.45;;;;;;;;;;5049520;28;20068;-77
2024/01/11 01:28:12;;;;;;;63.63;30.40;;;;;;;;;;5032475;28;20061;-78
2024/01/11 01:30:38;;;;;;;57.42;30.95;;;;;;;;;;4999510;28;20049;-77
2024/01/11 01:33:05;;;;;;;61.83;30.27;;;;;;;;;;5026694;28;20048;-78
2024/01/11 01:35:31;;;;;;;60.97;31.30;;;;;;;;;;5053391;28;20044;-77
2024/01/11 01:37:57;;;;;;;60.05;31.23;;;;;;;;;;5052408;28;20113;-78
2024/01/11 01:40:23;;;;;;;58.60;29.95;;;;;;;;;;5037351;28;20046;-77
2024/01/11 01:42:49;;;;;;;58.92;30.90;;;;;;;;;;5041947;28;20046;-78
2024/01/11 01:45:16;;;;;;;57.38;30.55;;;;;;;;;;5051615;28;20421;-77
2024/01/11 01:47:43;;;;;;;57.97;29.85;;;;;;;;;;5037703;28;20041;-78
2024/01/11 01:50:10;;;;;;;55.78;30.38;;;;;;;;;;5051967;28;20103;-77
2024/01/11 01:52:37;;;;;;;60.00;30.90;;;;;;;;;;5043744;28;20045;-77
2024/01/11 01:55:04;;;;;;;55.05;28.90;;;;;;;;;;5051222;28;20235;-77
2024/01/11 01:57:31;;;;;;;58.33;29.58;;;;;;;;;;5031954;28;20037;-77
2024/01/11 01:59:57;;;;;;;57.72;30.40;;;;;;;;;;5034180;28;20041;-77
2024/01/11 02:02:23;;;;;;;57.20;30.27;;;;;;;;;;5032668;28;20132;-77
2024/01/11 02:04:49;;;;;;;58.78;29.33;;;;;;;;;;5051226;28;20052;-78
2024/01/11 02:07:16;;;;;;;53.33;28.75;;;;;;;;;;5019192;28;20090;-78
2024/01/11 02:09:43;;;;;;;56.50;30.90;;;;;;;;;;5034469;28;20072;-77
2024/01/11 02:12:10;;;;;;;56.33;29.45;;;;;;;;;;5054082;28;20045;-77
2024/01/11 02:14:40;;;;;;;57.05;30.35;;;;;;;;;;5036084;28;20080;-77
2024/01/11 02:17:06;;;;;;;53.90;28.60;;;;;;;;;;5043999;28;20040;-77
2024/01/11 02:19:33;;;;;;;56.45;29.05;;;;;;;;;;5030709;28;20049;-77
2024/01/11 02:22:03;;;;;;;55.92;30.40;;;;;;;;;;5047097;28;20053;-77
2024/01/11 02:24:29;;;;;;;53.60;28.83;;;;;;;;;;5052370;28;20045;-77
2024/01/11 02:27:02;;;;;;;56.03;29.63;;;;;;;;;;5056179;28;20071;-78
2024/01/11 02:29:29;;;;;;;56.17;29.67;;;;;;;;;;5022757;28;20053;-78
2024/01/11 02:31:59;;;;;;;57.00;29.50;;;;;;;;;;5037416;28;20451;-77
2024/01/11 02:34:26;;;;;;;52.67;28.95;;;;;;;;;;5003248;28;20046;-77
2024/01/11 02:36:53;;;;;;;51.42;28.45;;;;;;;;;;5042210;28;20491;-77
2024/01/11 02:39:19;;;;;;;54.80;29.25;;;;;;;;;;5040580;28;20052;-76
2024/01/11 02:41:46;;;;;;;51.88;28.40;;;;;;;;;;5022373;28;20053;-78
2024/01/11 02:44:12;;;;;;;57.95;30.52;;;;;;;;;;5015377;28;20049;-77
2024/01/11 02:46:38;;;;;;;52.88;27.83;;;;;;;;;;5015438;28;20407;-77
2024/01/11 02:49:04;;;;;;;58.35;31.23;;;;;;;;;;5031091;28;20048;-77
2024/01/11 02:51:30;;;;;;;55.90;29.92;;;;;;;;;;5047319;28;20049;-76
2024/01/11 02:53:56;;;;;;;52.13;28.02;;;;;;;;;;5046077;28;20041;-76
2024/01/11 02:56:23;;;;;;;62.65;30.80;;;;;;;;;;5041133;28;20044;-76
2024/01/11 02:58:49;;;;;;;55.50;29.55;;;;;;;;;;5045459;28;20080;-76
2024/01/11 03:01:15;;;;;;;59.38;31.77;;;;;;;;;;5022288;28;20045;-76
2024/01/11 03:03:42;;;;;;;56.95;30.52;;;;;;;;;;5051405;28;20084;-76
2024/01/11 03:06:08;;;;;;;55.65;29.42;;;;;;;;;;5035555;28;20046;-76
2024/01/11 03:08:34;;;;;;;53.78;29.55;;;;;;;;;;5046797;28;20034;-76
2024/01/11 03:11:00;;;;;;;59.15;31.75;;;;;;;;;;5041484;28;20095;-76
2024/01/11 03:13:26;;;;;;;55.20;29.10;;;;;;;;;;5018250;28;20054;-77
2024/01/11 03:15:52;;;;;;;57.45;30.30;;;;;;;;;;5014975;28;20054;-77
2024/01/11 03:18:18;;;;;;;58.35;30.40;;;;;;;;;;5030438;28;20073;-76
2024/01/11 03:20:44;;;;;;;57.80;30.35;;;;;;;;;;5023675;28;20037;-77
2024/01/11 03:23:10;;;;;;;57.47;30.00;;;;;;;;;;5025214;28;20049;-77
2024/01/11 03:25:36;;;;;;;59.42;30.20;;;;;;;;;;5033043;28;20068;-77
2024/01/11 03:28:02;;;;;;;58.08;29.58;;;;;;;;;;5015457;28;20415;-76
2024/01/11 03:30:28;;;;;;;55.85;30.15;;;;;;;;;;5023502;28;20392;-76
2024/01/11 03:32:55;;;;;;;58.08;31.45;;;;;;;;;;5036033;28;20053;-76
2024/01/11 03:35:21;;;;;;;59.05;30.52;;;;;;;;;;5025125;28;20054;-77
2024/01/11 03:37:47;;;;;;;55.97;29.60;;;;;;;;;;5029985;28;20041;-77
2024/01/11 03:40:14;;;;;;;62.67;31.73;;;;;;;;;;5014830;28;20135;-76
2024/01/11 03:42:40;;;;;;;57.45;30.73;;;;;;;;;;5016724;28;20042;-77
2024/01/11 03:45:06;;;;;;;60.17;29.88;;;;;;;;;;5018780;28;20405;-77
2024/01/11 03:47:32;;;;;;;56.17;29.05;;;;;;;;;;5012459;28;20103;-77
2024/01/11 03:49:58;;;;;;;56.58;29.88;;;;;;;;;;5025550;28;20057;-77
2024/01/11 03:52:24;;;;;;;55.40;29.77;;;;;;;;;;5022913;28;20124;-76
2024/01/11 03:54:50;;;;;;;56.83;30.27;;;;;;;;;;5022685;28;20129;-77
2024/01/11 03:57:17;;;;;;;62.35;30.38;;;;;;;;;;5025908;28;20103;-77
2024/01/11 03:59:43;;;;;;;64.50;31.95;;;;;;;;;;5017247;28;20581;-77
2024/01/11 04:02:09;;;;;;;64.80;32.40;;;;;;;;;;5014103;28;20076;-77
2024/01/11 04:04:36;;;;;;;62.67;31.15;;;;;;;;;;5026265;28;20390;-77
2024/01/11 04:07:02;;;;;;;61.38;31.73;;;;;;;;;;5000268;28;20518;-77
2024/01/11 04:09:28;;;;;;;62.03;31.67;;;;;;;;;;5033600;28;20060;-76
2024/01/11 04:11:54;;;;;;;64.25;31.75;;;;;;;;;;5027692;28;20042;-77
2024/01/11 04:14:20;;;;;;;64.72;32.15;;;;;;;;;;5039480;28;20056;-77
2024/01/11 04:16:46;;;;;;;62.55;31.02;;;;;;;;;;5036643;28;20045;-76
2024/01/11 04:19:12;;;;;;;60.22;30.52;;;;;;;;;;5037479;28;20045;-77
2024/01/11 04:21:38;;;;;;;61.92;32.22;;;;;;;;;;5025457;28;20044;-77
2024/01/11 04:24:08;;;;;;;61.95;32.35;;;;;;;;;;5044116;28;20087;-76
2024/01/11 04:26:34;;;;;;;60.17;31.88;;;;;;;;;;5033047;28;20171;-77
2024/01/11 04:29:00;;;;;;;62.63;32.10;;;;;;;;;;5033849;28;20089;-77
2024/01/11 04:31:27;;;;;;;60.10;31.55;;;;;;;;;;5043418;28;20120;-77
2024/01/11 04:33:53;;;;;;;60.15;31.90;;;;;;;;;;5028984;28;20526;-77
2024/01/11 04:36:19;;;;;;;60.65;30.70;;;;;;;;;;5036558;28;20470;-76
2024/01/11 04:38:45;;;;;;;61.65;30.23;;;;;;;;;;5049577;28;20064;-76
2024/01/11 04:41:12;;;;;;;61.22;31.80;;;;;;;;;;5033484;28;20053;-77
2024/01/11 04:43:42;;;;;;;61.70;31.23;;;;;;;;;;5050978;28;20077;-77
2024/01/11 04:46:17;;;;;;;65.68;33.17;;;;;;;;;;5045421;28;20057;-77
2024/01/11 04:48:44;;;;;;;66.75;32.30;;;;;;;;;;5046979;28;20073;-77
2024/01/11 04:51:10;;;;;;;58.97;30.98;;;;;;;;;;5040722;28;20049;-77
2024/01/11 04:53:38;;;;;;;60.92;31.98;;;;;;;;;;5015173;28;20054;-77
2024/01/11 04:56:04;;;;;;;59.03;30.63;;;;;;;;;;5049942;28;20096;-77
2024/01/11 04:58:30;;;;;;;59.25;31.25;;;;;;;;;;5041674;28;20044;-77
2024/01/11 05:00:56;;;;;;;63.78;32.53;;;;;;;;;;5050932;28;20049;-77
2024/01/11 05:03:22;;;;;;;63.88;31.13;;;;;;;;;;5042539;28;20045;-77
2024/01/11 05:05:48;;;;;;;64.95;31.65;;;;;;;;;;5034681;28;20045;-77
2024/01/11 05:08:14;;;;;;;68.05;34.03;;;;;;;;;;5033782;28;20506;-78
2024/01/11 05:10:40;;;;;;;64.55;33.53;;;;;;;;;;5038332;28;20046;-77
2024/01/11 05:13:06;;;;;;;72.53;33.13;;;;;;;;;;5013752;28;20053;-77
2024/01/11 05:15:33;;;;;;;71.68;35.03;;;;;;;;;;5040258;28;20044;-77
2024/01/11 05:18:00;;;;;;;69.00;34.33;;;;;;;;;;5037662;28;20046;-76
2024/01/11 05:20:26;;;;;;;70.13;35.63;;;;;;;;;;5040816;28;20045;-77
2024/01/11 05:22:52;;;;;;;74.47;35.42;;;;;;;;;;5033486;28;20045;-77
2024/01/11 05:25:18;;;;;;;77.60;35.97;;;;;;;;;;5037115;28;20061;-77
2024/01/11 05:27:44;;;;;;;73.32;35.28;;;;;;;;;;5040945;28;20527;-76
2024/01/11 05:30:10;;;;;;;77.18;37.13;;;;;;;;;;5047176;28;20453;-77
2024/01/11 05:32:36;;;;;;;79.00;38.28;;;;;;;;;;5036327;28;20048;-77
2024/01/11 05:35:02;;;;;;;81.15;38.30;;;;;;;;;;5038409;28;20045;-77
2024/01/11 05:37:28;;;;;;;76.47;36.97;;;;;;;;;;5033018;28;20414;-77
2024/01/11 05:39:56;;;;;;;80.25;38.17;;;;;;;;;;5045172;28;20041;-77
2024/01/11 05:42:24;;;;;;;67.50;33.50;;;;;;;;;;5051085;28;20049;-77
2024/01/11 05:44:50;;;;;;;77.03;36.75;;;;;;;;;;5024286;28;20045;-77
2024/01/11 05:47:16;;;;;;;74.20;37.17;;;;;;;;;;5033057;28;20057;-77
2024/01/11 05:49:42;;;;;;;74.43;36.25;;;;;;;;;;5043386;28;20071;-77
2024/01/11 05:52:08;;;;;;;72.07;36.30;;;;;;;;;;5037332;28;20038;-77
2024/01/11 05:54:34;;;;;;;68.93;34.83;;;;;;;;;;5045336;28;20128;-77
2024/01/11 05:57:00;;;;;;;64.13;32.40;;;;;;;;;;5036920;28;20049;-78
2024/01/11 05:59:26;;;;;;;69.70;36.92;;;;;;;;;;5052396;28;20041;-77
2024/01/11 06:01:52;;;;;;;77.78;39.72;;;;;;;;;;5052842;28;20056;-77
2024/01/11 06:04:18;;;;;;;73.35;38.10;;;;;;;;;;5052586;28;20056;-77
2024/01/11 06:06:44;;;;;;;78.03;39.22;;;;;;;;;;5035182;28;20049;-77
2024/01/11 06:09:10;;;;;;;90.25;44.88;;;;;;;;;;5047305;28;20053;-78
2024/01/11 06:11:36;;;;;;;95.63;47.33;;;;;;;;;;5041251;28;20048;-77
2024/01/11 06:14:03;;;;;;;89.95;47.00;;;;;;;;;;5028649;28;20062;-77
2024/01/11 06:16:29;;;;;;;79.97;42.22;;;;;;;;;;5036437;28;20056;-77
2024/01/11 06:18:55;;;;;;;75.18;38.97;;;;;;;;;;5043534;28;20045;-76
2024/01/11 06:21:21;;;;;;;80.57;40.35;;;;;;;;;;5039179;28;20048;-77
2024/01/11 06:23:48;;;;;;;84.05;42.42;;;;;;;;;;5031712;28;20042;-77
2024/01/11 06:26:15;;;;;;;81.65;40.42;;;;;;;;;;5035393;28;20057;-77
2024/01/11 06:28:41;;;;;;;88.57;45.00;;;;;;;;;;5017954;28;20057;-77
2024/01/11 06:31:07;;;;;;;87.88;44.42;;;;;;;;;;5051986;28;20053;-77
2024/01/11 06:33:36;;;;;;;81.85;42.25;;;;;;;;;;5016133;28;20057;-78
2024/01/11 06:36:02;;;;;;;77.72;39.90;;;;;;;;;;5026618;28;20052;-77
2024/01/11 06:38:28;;;;;;;88.07;45.22;;;;;;;;;;5054075;28;20041;-77
2024/01/11 06:40:55;;;;;;;89.13;46.10;;;;;;;;;;5041106;28;20049;-77
2024/01/11 06:43:21;;;;;;;108.80;57.25;;;;;;;;;;5047277;28;20053;-77
2024/01/11 06:45:47;;;;;;;104.18;55.42;;;;;;;;;;5031506;28;20041;-78
2024/01/11 06:48:13;;;;;;;103.32;52.20;;;;;;;;;;5032576;28;20048;-77
2024/01/11 06:50:39;;;;;;;108.07;56.50;;;;;;;;;;5019584;28;20103;-78
2024/01/11 06:53:05;;;;;;;102.63;53.58;;;;;;;;;;5029870;28;20502;-78
2024/01/11 06:55:31;;;;;;;93.85;49.50;;;;;;;;;;5033883;28;20045;-77
2024/01/11 06:57:57;;;;;;;83.65;43.97;;;;;;;;;;5031977;28;20045;-77
2024/01/11 07:00:23;;;;;;;83.47;44.45;;;;;;;;;;5036275;28;20049;-77
2024/01/11 07:02:49;;;;;;;81.82;43.05;;;;;;;;;;5035245;28;20052;-77
2024/01/11 07:05:16;;;;;;;87.25;44.22;;;;;;;;;;5034302;28;20077;-77
2024/01/11 07:07:42;;;;;;;80.93;43.92;;;;;;;;;;5014820;28;20495;-77
2024/01/11 07:10:08;;;;;;;74.10;40.45;;;;;;;;;;5031596;28;20421;-78
2024/01/11 07:12:34;;;;;;;84.15;43.25;;;;;;;;;;5029369;28;20132;-76
2024/01/11 07:15:00;;;;;;;90.00;45.53;;;;;;;;;;5035399;28;20056;-77
2024/01/11 07:17:27;;;;;;;93.28;45.42;;;;;;;;;;5046520;28;20048;-77
2024/01/11 07:19:53;;;;;;;82.25;43.30;;;;;;;;;;5040172;28;20041;-77
2024/01/11 07:22:19;;;;;;;81.13;41.58;;;;;;;;;;5017413;28;20059;-77
2024/01/11 07:24:45;;;;;;;88.28;44.63;;;;;;;;;;5015768;28;20048;-77
2024/01/11 07:27:11;;;;;;;85.00;44.22;;;;;;;;;;5016510;28;20050;-77
2024/01/11 07:29:37;;;;;;;92.72;45.58;;;;;;;;;;5034943;28;20037;-77
2024/01/11 07:32:06;;;;;;;83.88;43.80;;;;;;;;;;5035111;28;20493;-77
2024/01/11 07:34:32;;;;;;;92.05;45.17;;;;;;;;;;5034228;28;20092;-77
2024/01/11 07:36:59;;;;;;;94.65;46.67;;;;;;;;;;5034606;28;20128;-78
2024/01/11 07:39:25;;;;;;;84.30;42.10;;;;;;;;;;5034764;28;20144;-77
2024/01/11 07:41:52;;;;;;;85.07;42.72;;;;;;;;;;5034415;28;20110;-76
2024/01/11 07:44:18;;;;;;;78.50;38.90;;;;;;;;;;5033680;28;20081;-77
2024/01/11 07:46:45;;;;;;;71.03;37.15;;;;;;;;;;5015957;28;20052;-78
2024/01/11 07:49:11;;;;;;;76.72;39.03;;;;;;;;;;5033686;28;20049;-77
2024/01/11 07:51:37;;;;;;;76.90;39.22;;;;;;;;;;5034997;28;20064;-77
2024/01/11 07:54:04;;;;;;;75.35;38.22;;;;;;;;;;5038408;28;20842;-76
2024/01/11 07:56:31;;;;;;;72.55;37.95;;;;;;;;;;5031086;28;20104;-77
2024/01/11 07:58:57;;;;;;;80.57;38.72;;;;;;;;;;5030879;28;20049;-78
2024/01/11 08:01:23;;;;;;;76.30;39.35;;;;;;;;;;5033340;28;20491;-77
2024/01/11 08:03:51;;;;;;;75.90;39.28;;;;;;;;;;5034435;28;20176;-77
2024/01/11 08:06:18;;;;;;;74.18;39.08;;;;;;;;;;5035060;28;20124;-77
2024/01/11 08:08:44;;;;;;;81.00;39.00;;;;;;;;;;5033669;28;20471;-77
2024/01/11 08:11:12;;;;;;;76.90;38.72;;;;;;;;;;5033536;28;20410;-78
2024/01/11 08:13:38;;;;;;;73.55;39.38;;;;;;;;;;5031196;28;20073;-79
2024/01/11 08:16:07;;;;;;;79.07;41.13;;;;;;;;;;5027932;28;20052;-77
2024/01/11 08:18:33;;;;;;;80.07;41.22;;;;;;;;;;5004647;28;20368;-77
2024/01/11 08:20:59;;;;;;;83.05;44.00;;;;;;;;;;5040274;28;20550;-78
2024/01/11 08:23:25;;;;;;;87.22;43.92;;;;;;;;;;5033131;28;20091;-78
2024/01/11 08:25:52;;;;;;;82.55;42.67;;;;;;;;;;5033580;28;20494;-77
2024/01/11 08:28:18;;;;;;;81.47;40.95;;;;;;;;;;5033904;28;20081;-77
2024/01/11 08:30:46;;;;;;;85.72;42.00;;;;;;;;;;5033552;28;20352;-77
2024/01/11 08:33:13;;;;;;;86.10;43.72;;;;;;;;;;5033492;28;20048;-78
2024/01/11 08:35:40;;;;;;;84.07;42.30;;;;;;;;;;5033418;28;20143;-77
2024/01/11 08:38:06;;;;;;;78.95;39.22;;;;;;;;;;5033184;28;20051;-77
2024/01/11 08:40:32;;;;;;;75.80;38.83;;;;;;;;;;5033769;28;20479;-77
2024/01/11 08:42:59;;;;;;;76.32;39.50;;;;;;;;;;5032439;28;20042;-77
2024/01/11 08:45:25;;;;;;;76.85;39.55;;;;;;;;;;5032607;28;20053;-78
2024/01/11 08:47:51;;;;;;;77.50;40.38;;;;;;;;;;5015566;28;20052;-76
2024/01/11 08:50:17;;;;;;;76.38;38.92;;;;;;;;;;5015096;28;20533;-77
2024/01/11 08:52:44;;;;;;;79.78;39.88;;;;;;;;;;4999890;28;20368;-79
2024/01/11 08:55:12;;;;;;;77.40;39.40;;;;;;;;;;5013930;28;20042;-79
2024/01/11 08:57:39;;;;;;;77.32;40.95;;;;;;;;;;5011925;28;20046;-78
2024/01/11 09:00:08;;;;;;;78.00;40.50;;;;;;;;;;5013389;28;20049;-78
2024/01/11 09:02:35;;;;;;;78.88;40.22;;;;;;;;;;5030858;28;20048;-78
2024/01/11 09:05:02;;;;;;;79.05;41.28;;;;;;;;;;5015274;28;20499;-78
2024/01/11 09:07:28;;;;;;;78.13;39.67;;;;;;;;;;5016153;28;20052;-78
2024/01/11 09:09:54;;;;;;;74.30;38.03;;;;;;;;;;4998799;28;20045;-78
2024/01/11 09:12:21;;;;;;;72.40;39.30;;;;;;;;;;5033102;28;20046;-78
2024/01/11 09:14:48;;;;;;;70.88;37.35;;;;;;;;;;5032839;28;20057;-78
2024/01/11 09:17:14;;;;;;;78.40;37.78;;;;;;;;;;5032604;28;20049;-79
2024/01/11 09:19:40;;;;;;;76.72;38.67;;;;;;;;;;5032506;28;20128;-78
2024/01/11 09:22:09;;;;;;;74.28;38.70;;;;;;;;;;5015042;28;20128;-78
2024/01/11 09:24:36;;;;;;;78.65;39.58;;;;;;;;;;5032901;28;20049;-78
2024/01/11 09:27:04;;;;;;;79.00;41.45;;;;;;;;;;5032944;28;20367;-78
2024/01/11 09:29:30;;;;;;;84.15;43.33;;;;;;;;;;5014800;28;20049;-78
2024/01/11 09:31:56;;;;;;;75.03;39.70;;;;;;;;;;5015023;28;20056;-79
2024/01/11 09:34:22;;;;;;;75.70;40.40;;;;;;;;;;5031022;28;20154;-78
2024/01/11 09:36:48;;;;;;;73.75;38.78;;;;;;;;;;5031821;28;20060;-79
2024/01/11 09:39:14;;;;;;;69.28;36.53;;;;;;;;;;5032950;28;20083;-79
2024/01/11 09:41:45;;;;;;;70.10;37.28;;;;;;;;;;5035879;28;20042;-79
2024/01/11 09:44:11;;;;;;;67.45;36.63;;;;;;;;;;5031413;28;20084;-77
2024/01/11 09:46:38;;;;;;;64.35;33.50;;;;;;;;;;5033090;28;20038;-78
2024/01/11 09:49:04;;;;;;;60.55;34.42;;;;;;;;;;5014562;28;20057;-78
2024/01/11 09:51:31;;;;;;;61.47;33.67;;;;;;;;;;5026290;28;20041;-78
2024/01/11 09:53:59;;;;;;;62.03;33.10;;;;;;;;;;5032623;28;20050;-77
2024/01/11 09:56:27;;;;;;;57.67;31.98;;;;;;;;;;5032297;28;20471;-77
2024/01/11 09:58:53;;;;;;;58.80;32.70;;;;;;;;;;5035713;28;20037;-78
2024/01/11 10:01:20;;;;;;;54.17;30.85;;;;;;;;;;5023144;28;20061;-79
2024/01/11 10:03:46;;;;;;;54.92;29.77;;;;;;;;;;5005260;28;20038;-78
2024/01/11 10:06:12;;;;;;;53.30;30.33;;;;;;;;;;5030628;28;20072;-78
2024/01/11 10:08:38;;;;;;;60.63;32.22;;;;;;;;;;5035500;28;20045;-78
2024/01/11 10:11:04;;;;;;;54.67;31.15;;;;;;;;;;5036206;28;20414;-78
2024/01/11 10:13:32;;;;;;;53.35;31.20;;;;;;;;;;5034682;28;20053;-78
2024/01/11 10:16:09;;;;;;;56.38;31.02;;;;;;;;;;5035722;28;20049;-79
2024/01/11 10:18:35;;;;;;;53.33;30.52;;;;;;;;;;5034782;28;20049;-79
2024/01/11 10:21:02;;;;;;;49.30;27.42;;;;;;;;;;5035953;28;20045;-78
2024/01/11 10:23:31;;;;;;;51.78;30.05;;;;;;;;;;5012513;28;20046;-78
2024/01/11 10:25:58;;;;;;;54.65;31.00;;;;;;;;;;5018752;28;20087;-78
2024/01/11 10:28:28;;;;;;;49.88;28.50;;;;;;;;;;5030273;28;20041;-79
2024/01/11 10:30:54;;;;;;;51.40;28.20;;;;;;;;;;5030668;28;20054;-79
2024/01/11 10:33:21;;;;;;;48.53;27.27;;;;;;;;;;5021010;28;20115;-78
2024/01/11 10:35:48;;;;;;;43.10;25.90;;;;;;;;;;5033480;28;20081;-78
2024/01/11 10:38:15;;;;;;;47.97;27.92;;;;;;;;;;5032622;28;20045;-78
2024/01/11 10:40:42;;;;;;;44.08;26.23;;;;;;;;;;5044685;28;20124;-78
2024/01/11 10:43:12;;;;;;;48.90;27.88;;;;;;;;;;5040008;28;20046;-80
2024/01/11 10:45:38;;;;;;;43.33;27.05;;;;;;;;;;5019868;28;20695;-78
2024/01/11 10:48:07;;;;;;;46.05;26.77;;;;;;;;;;5026439;28;20479;-78
2024/01/11 10:50:39;;;;;;;46.88;28.27;;;;;;;;;;5033048;28;20043;-78
2024/01/11 10:53:08;;;;;;;45.78;26.90;;;;;;;;;;5033991;28;20158;-78
2024/01/11 10:55:35;;;;;;;47.58;27.48;;;;;;;;;;5016368;28;20165;-79
2024/01/11 10:58:02;;;;;;;48.75;27.60;;;;;;;;;;5025739;28;20077;-79
2024/01/11 11:00:29;;;;;;;47.80;27.63;;;;;;;;;;5028472;28;20164;-79
2024/01/11 11:02:56;;;;;;;55.75;29.67;;;;;;;;;;5033951;28;20163;-78
2024/01/11 11:05:24;;;;;;;51.85;29.75;;;;;;;;;;5037750;28;20427;-78
2024/01/11 11:07:50;;;;;;;49.92;29.98;;;;;;;;;;5037158;28;20053;-78
2024/01/11 11:10:18;;;;;;;54.95;31.98;;;;;;;;;;5034946;28;20048;-78
2024/01/11 11:12:46;;;;;;;41.83;25.35;;;;;;;;;;5036671;28;20045;-78
2024/01/11 11:15:13;;;;;;;45.65;27.63;;;;;;;;;;5019473;28;20041;-78
2024/01/11 11:17:40;;;;;;;50.40;29.67;;;;;;;;;;5014844;28;20087;-78
2024/01/11 11:20:08;;;;;;;48.08;28.23;;;;;;;;;;5034505;28;20049;-78
2024/01/11 11:22:35;;;;;;;56.85;28.70;;;;;;;;;;5034811;28;20065;-79
2024/01/11 11:25:06;;;;;;;46.58;28.73;;;;;;;;;;5034699;28;20057;-78
2024/01/11 11:27:33;;;;;;;43.42;26.10;;;;;;;;;;5017284;28;20064;-78
2024/01/11 11:29:59;;;;;;;42.38;25.08;;;;;;;;;;5035168;28;20045;-79
2024/01/11 11:32:38;;;;;;;44.05;25.35;;;;;;;;;;5037843;28;20080;-79
2024/01/11 11:35:04;;;;;;;40.75;24.23;;;;;;;;;;5030876;28;20044;-78
2024/01/11 11:37:33;;;;;;;35.90;21.02;;;;;;;;;;5035209;28;20049;-78
2024/01/11 11:40:00;;;;;;;39.83;22.30;;;;;;;;;;5018842;28;20065;-79
2024/01/11 11:42:27;;;;;;;38.08;22.83;;;;;;;;;;5035224;28;20041;-79
2024/01/11 11:44:54;;;;;;;38.17;23.13;;;;;;;;;;5035248;28;20060;-79
2024/01/11 11:47:22;;;;;;;40.35;23.73;;;;;;;;;;5034997;28;20045;-79
2024/01/11 11:49:59;;;;;;;36.67;22.40;;;;;;;;;;5035324;28;20100;-79
2024/01/11 11:52:25;;;;;;;39.53;23.48;;;;;;;;;;5035683;28;20053;-79
2024/01/11 11:54:52;;;;;;;40.25;22.83;;;;;;;;;;5000904;28;20050;-79
2024/01/11 11:57:18;;;;;;;41.08;24.10;;;;;;;;;;5041692;28;20075;-79
2024/01/11 11:59:45;;;;;;;38.80;23.13;;;;;;;;;;5053932;28;20045;-79
2024/01/11 12:02:16;;;;;;;36.25;22.45;;;;;;;;;;5036959;28;20045;-79
2024/01/11 12:04:47;;;;;;;37.78;22.15;;;;;;;;;;5031802;28;20042;-79
2024/01/11 12:07:13;;;;;;;38.47;22.55;;;;;;;;;;5027900;28;20033;-79
2024/01/11 12:09:40;;;;;;;39.35;23.33;;;;;;;;;;5038046;28;20103;-79
2024/01/11 12:12:06;;;;;;;36.78;22.95;;;;;;;;;;5038944;28;20049;-79
2024/01/11 12:14:32;;;;;;;38.45;23.85;;;;;;;;;;5046523;28;20058;-79
2024/01/11 12:16:58;;;;;;;34.00;19.92;;;;;;;;;;5039536;28;20042;-79
2024/01/11 12:19:25;;;;;;;35.53;21.95;;;;;;;;;;5039530;28;20381;-79
2024/01/11 12:21:51;;;;;;;35.83;20.38;;;;;;;;;;5040335;28;20041;-79
2024/01/11 12:24:17;;;;;;;39.13;22.17;;;;;;;;;;5042815;28;20057;-79
2024/01/11 12:26:43;;;;;;;36.28;22.08;;;;;;;;;;5055373;28;20045;-79
2024/01/11 12:29:10;;;;;;;37.30;23.27;;;;;;;;;;5057956;28;20045;-79
2024/01/11 12:31:36;;;;;;;35.25;21.63;;;;;;;;;;5059911;28;20538;-79
2024/01/11 12:34:03;;;;;;;34.72;21.50;;;;;;;;;;5059162;28;20045;-79
2024/01/11 12:36:29;;;;;;;37.58;21.77;;;;;;;;;;5050665;28;20053;-80
2024/01/11 12:38:55;;;;;;;37.60;22.85;;;;;;;;;;5050616;28;20072;-79
2024/01/11 12:41:23;;;;;;;38.45;23.35;;;;;;;;;;5039987;28;20077;-79
2024/01/11 12:43:49;;;;;;;40.03;22.65;;;;;;;;;;5039327;28;20483;-79
2024/01/11 12:46:15;;;;;;;34.88;22.13;;;;;;;;;;5046676;28;20462;-79
2024/01/11 12:48:42;;;;;;;37.13;22.67;;;;;;;;;;5042819;28;20037;-79
2024/01/11 12:51:08;;;;;;;37.17;21.90;;;;;;;;;;5059433;28;20501;-79
2024/01/11 12:53:36;;;;;;;38.47;22.65;;;;;;;;;;5046800;28;20124;-79
2024/01/11 12:56:03;;;;;;;43.10;24.90;;;;;;;;;;5036622;28;20523;-78
2024/01/11 12:58:30;;;;;;;40.45;23.90;;;;;;;;;;5035520;28;20080;-78
2024/01/11 13:00:57;;;;;;;46.35;23.42;;;;;;;;;;5038504;28;20045;-80
2024/01/11 13:03:23;;;;;;;38.55;21.58;;;;;;;;;;5042888;28;20053;-79
2024/01/11 13:05:49;;;;;;;46.97;23.88;;;;;;;;;;5038451;28;20402;-79
2024/01/11 13:08:15;;;;;;;42.25;22.92;;;;;;;;;;5038621;28;20068;-79
2024/01/11 13:10:41;;;;;;;39.65;22.48;;;;;;;;;;5039392;28;20045;-79
2024/01/11 13:13:08;;;;;;;45.20;23.85;;;;;;;;;;5039936;28;20132;-79
2024/01/11 13:15:34;;;;;;;45.78;24.70;;;;;;;;;;5039822;28;20049;-80
2024/01/11 13:18:00;;;;;;;52.95;26.88;;;;;;;;;;5038276;28;20052;-80
2024/01/11 13:20:28;;;;;;;49.72;25.75;;;;;;;;;;5039603;28;20191;-79
2024/01/11 13:23:13;;;;;;;50.80;25.05;;;;;;;;;;5038821;28;20053;-80
2024/01/11 13:25:39;;;;;;;49.65;26.15;;;;;;;;;;5039014;28;20049;-79
2024/01/11 13:28:06;;;;;;;45.65;24.60;;;;;;;;;;5039710;28;20112;-79
2024/01/11 13:30:32;;;;;;;54.10;27.10;;;;;;;;;;5039566;28;20068;-79
2024/01/11 13:32:59;;;;;;;47.90;26.02;;;;;;;;;;5048190;28;20041;-79
2024/01/11 13:35:25;;;;;;;54.00;29.33;;;;;;;;;;5040946;28;20037;-79
2024/01/11 13:37:51;;;;;;;54.97;29.33;;;;;;;;;;5042068;28;20119;-79
2024/01/11 13:40:17;;;;;;;53.65;27.20;;;;;;;;;;5042839;28;20041;-80
2024/01/11 13:42:43;;;;;;;54.80;28.23;;;;;;;;;;5042324;28;20042;-79
2024/01/11 13:45:09;;;;;;;52.72;28.77;;;;;;;;;;5042804;28;20045;-79
2024/01/11 13:47:39;;;;;;;58.83;30.60;;;;;;;;;;5045866;28;20057;-79
2024/01/11 13:50:05;;;;;;;67.03;33.00;;;;;;;;;;5045031;28;20052;-79
2024/01/11 13:52:31;;;;;;;60.38;31.10;;;;;;;;;;5051130;28;20148;-79
2024/01/11 13:54:57;;;;;;;64.93;31.10;;;;;;;;;;5063126;28;20049;-80
2024/01/11 13:57:23;;;;;;;63.15;30.40;;;;;;;;;;5058204;28;20049;-80
2024/01/11 13:59:50;;;;;;;59.33;31.05;;;;;;;;;;5024466;28;20052;-80
2024/01/11 14:02:16;;;;;;;66.90;30.85;;;;;;;;;;5043917;28;20057;-80
2024/01/11 14:04:42;;;;;;;60.25;30.35;;;;;;;;;;5042308;28;20053;-80
2024/01/11 14:07:08;;;;;;;54.75;28.00;;;;;;;;;;5043377;28;20057;-80
2024/01/11 14:09:34;;;;;;;64.95;31.90;;;;;;;;;;5042809;28;20415;-80
2024/01/11 14:12:00;;;;;;;62.70;29.48;;;;;;;;;;5043725;28;20368;-79